createdAt,value
2019-05-26T00:00:05.647Z,13.44
2019-05-26T00:01:05.415Z,13.38
2019-05-26T00:02:05.568Z,13.38
2019-05-26T00:03:05.707Z,13.44
2019-05-26T00:04:05.477Z,13.44
2019-05-26T00:05:05.255Z,13.62
2019-05-26T00:06:05.166Z,13.50
2019-05-26T00:07:05.387Z,13.38
2019-05-26T00:08:06.068Z,13.31
2019-05-26T00:09:06.031Z,13.38
2019-05-26T00:10:06.132Z,13.44
2019-05-26T00:11:05.401Z,13.31
2019-05-26T00:12:05.480Z,13.44
2019-05-26T00:13:05.798Z,13.44
2019-05-26T00:14:05.314Z,13.38
2019-05-26T00:15:05.327Z,13.38
2019-05-26T00:16:06.995Z,13.38
2019-05-26T00:17:05.653Z,13.31
2019-05-26T00:18:05.727Z,13.31
2019-05-26T00:19:05.708Z,13.31
2019-05-26T00:20:05.325Z,13.31
2019-05-26T00:21:05.404Z,13.31
2019-05-26T00:22:05.620Z,13.31
2019-05-26T00:23:05.497Z,13.38
2019-05-26T00:24:05.476Z,13.31
2019-05-26T00:25:05.950Z,13.25
2019-05-26T00:26:05.303Z,13.19
2019-05-26T00:27:05.556Z,13.25
2019-05-26T00:28:05.473Z,13.31
2019-05-26T00:29:05.812Z,13.31
2019-05-26T00:30:05.985Z,13.31
2019-05-26T00:31:05.957Z,13.25
2019-05-26T00:32:05.254Z,13.25
2019-05-26T00:33:05.494Z,13.25
2019-05-26T00:34:05.469Z,13.19
2019-05-26T00:35:05.151Z,13.19
2019-05-26T00:36:05.427Z,13.06
2019-05-26T00:37:05.573Z,13.06
2019-05-26T00:38:05.578Z,13.06
2019-05-26T00:39:05.723Z,13.06
2019-05-26T00:40:05.873Z,13.12
2019-05-26T00:41:05.975Z,13.12
2019-05-26T00:42:05.941Z,13.06
2019-05-26T00:43:05.958Z,13.06
2019-05-26T00:44:05.177Z,13.06
2019-05-26T00:45:05.571Z,13.00
2019-05-26T00:46:05.965Z,13.00
2019-05-26T00:47:05.058Z,13.00
2019-05-26T00:48:05.464Z,13.00
2019-05-26T00:49:05.714Z,13.00
2019-05-26T00:50:05.329Z,13.12
2019-05-26T00:51:05.551Z,13.06
2019-05-26T00:52:05.723Z,13.12
2019-05-26T00:53:05.226Z,13.06
2019-05-26T00:54:05.958Z,13.19
2019-05-26T00:55:05.659Z,13.31
2019-05-26T00:56:05.788Z,13.44
2019-05-26T00:57:05.326Z,13.56
2019-05-26T00:58:06.036Z,13.56
2019-05-26T00:59:05.113Z,13.56
2019-05-26T01:00:05.254Z,13.56
2019-05-26T01:01:05.728Z,13.56
2019-05-26T01:02:05.965Z,13.50
2019-05-26T01:03:05.952Z,13.50
2019-05-26T01:04:05.647Z,13.44
2019-05-26T01:05:05.663Z,13.38
2019-05-26T01:06:05.259Z,13.38
2019-05-26T01:07:05.337Z,13.38
2019-05-26T01:08:06.514Z,13.38
2019-05-26T01:09:05.410Z,13.31
2019-05-26T01:10:05.812Z,13.31
2019-05-26T01:11:05.970Z,13.31
2019-05-26T01:12:05.328Z,13.25
2019-05-26T01:13:06.058Z,13.12
2019-05-26T01:14:05.085Z,13.19
2019-05-26T01:15:05.258Z,13.25
2019-05-26T01:16:05.233Z,13.25
2019-05-26T01:17:05.968Z,13.25
2019-05-26T01:18:05.405Z,13.19
2019-05-26T01:19:05.960Z,13.12
2019-05-26T01:20:05.990Z,13.12
2019-05-26T01:21:06.044Z,13.25
2019-05-26T01:22:05.725Z,13.19
2019-05-26T01:23:05.264Z,13.12
2019-05-26T01:24:05.651Z,13.12
2019-05-26T01:25:06.063Z,13.12
2019-05-26T01:26:05.197Z,13.06
2019-05-26T01:27:05.491Z,13.06
2019-05-26T01:28:05.068Z,13.00
2019-05-26T01:29:05.311Z,12.94
2019-05-26T01:30:05.708Z,12.88
2019-05-26T01:31:06.130Z,12.88
2019-05-26T01:32:05.557Z,12.81
2019-05-26T01:33:05.654Z,12.81
2019-05-26T01:34:05.839Z,12.81
2019-05-26T01:35:05.864Z,12.88
2019-05-26T01:36:05.568Z,12.81
2019-05-26T01:37:05.980Z,12.88
2019-05-26T01:38:20.590Z,12.88
2019-05-26T01:39:05.653Z,12.88
2019-05-26T01:40:05.159Z,12.81
2019-05-26T01:41:05.452Z,12.75
2019-05-26T01:42:05.837Z,12.75
2019-05-26T01:43:05.962Z,12.69
2019-05-26T01:44:05.410Z,12.62
2019-05-26T01:45:05.247Z,12.56
2019-05-26T01:46:05.222Z,12.56
2019-05-26T01:47:05.879Z,12.56
2019-05-26T01:48:04.994Z,12.56
2019-05-26T01:49:05.081Z,12.50
2019-05-26T01:50:05.799Z,12.50
2019-05-26T01:51:05.258Z,12.44
2019-05-26T01:52:05.417Z,12.38
2019-05-26T01:53:05.821Z,12.38
2019-05-26T01:54:05.286Z,12.38
2019-05-26T01:55:05.403Z,12.38
2019-05-26T01:56:05.575Z,12.38
2019-05-26T01:57:06.437Z,12.44
2019-05-26T01:58:05.766Z,12.50
2019-05-26T01:59:05.950Z,12.50
2019-05-26T02:00:05.404Z,12.50
2019-05-26T02:01:05.471Z,12.56
2019-05-26T02:02:05.649Z,12.56
2019-05-26T02:03:05.249Z,12.50
2019-05-26T02:04:05.497Z,12.50
2019-05-26T02:05:05.164Z,12.44
2019-05-26T02:06:05.571Z,12.38
2019-05-26T02:07:05.714Z,12.31
2019-05-26T02:08:06.041Z,12.31
2019-05-26T02:09:05.440Z,12.31
2019-05-26T02:10:06.053Z,12.25
2019-05-26T02:11:05.551Z,12.25
2019-05-26T02:12:05.870Z,12.31
2019-05-26T02:13:05.948Z,12.50
2019-05-26T02:14:05.172Z,12.50
2019-05-26T02:15:05.166Z,12.50
2019-05-26T02:16:05.555Z,12.44
2019-05-26T02:17:05.739Z,12.38
2019-05-26T02:18:05.318Z,12.31
2019-05-26T02:19:05.800Z,12.25
2019-05-26T02:20:05.409Z,12.25
2019-05-26T02:21:05.014Z,12.25
2019-05-26T02:22:05.389Z,12.25
2019-05-26T02:23:05.963Z,12.31
2019-05-26T02:24:05.733Z,12.31
2019-05-26T02:25:06.028Z,12.25
2019-05-26T02:26:05.479Z,12.44
2019-05-26T02:27:06.138Z,12.44
2019-05-26T02:28:05.157Z,12.44
2019-05-26T02:29:05.470Z,12.44
2019-05-26T02:30:05.645Z,12.44
2019-05-26T02:31:05.011Z,12.44
2019-05-26T02:32:05.392Z,12.38
2019-05-26T02:33:05.971Z,12.44
2019-05-26T02:34:05.350Z,12.38
2019-05-26T02:35:05.562Z,12.38
2019-05-26T02:36:05.958Z,12.38
2019-05-26T02:37:05.098Z,12.44
2019-05-26T02:38:05.727Z,12.44
2019-05-26T02:39:05.320Z,12.44
2019-05-26T02:40:05.151Z,12.44
2019-05-26T02:41:05.364Z,12.56
2019-05-26T02:42:05.569Z,12.56
2019-05-26T02:43:05.409Z,12.50
2019-05-26T02:44:05.723Z,12.44
2019-05-26T02:45:05.075Z,12.38
2019-05-26T02:46:05.314Z,12.38
2019-05-26T02:47:06.032Z,12.31
2019-05-26T02:48:05.260Z,12.25
2019-05-26T02:49:05.249Z,12.25
2019-05-26T02:50:05.483Z,12.19
2019-05-26T02:51:05.816Z,12.12
2019-05-26T02:52:05.868Z,12.12
2019-05-26T02:53:05.091Z,12.12
2019-05-26T02:54:09.481Z,12.31
2019-05-26T02:55:05.736Z,12.25
2019-05-26T02:56:05.256Z,12.19
2019-05-26T02:57:05.637Z,12.50
2019-05-26T02:58:05.814Z,12.81
2019-05-26T02:59:05.976Z,12.56
2019-05-26T03:00:05.172Z,12.38
2019-05-26T03:01:05.414Z,12.25
2019-05-26T03:02:05.902Z,12.19
2019-05-26T03:03:05.312Z,12.06
2019-05-26T03:04:05.310Z,12.19
2019-05-26T03:05:05.182Z,12.12
2019-05-26T03:06:05.250Z,12.06
2019-05-26T03:07:05.249Z,12.00
2019-05-26T03:08:05.741Z,12.00
2019-05-26T03:09:21.547Z,11.88
2019-05-26T03:10:05.080Z,11.88
2019-05-26T03:11:05.731Z,11.88
2019-05-26T03:12:05.243Z,11.88
2019-05-26T03:13:05.812Z,11.75
2019-05-26T03:14:05.961Z,11.69
2019-05-26T03:15:06.039Z,11.94
2019-05-26T03:16:05.646Z,12.12
2019-05-26T03:17:06.116Z,12.12
2019-05-26T03:18:05.153Z,11.88
2019-05-26T03:19:05.320Z,11.81
2019-05-26T03:20:05.545Z,11.62
2019-05-26T03:21:05.149Z,11.56
2019-05-26T03:22:05.913Z,11.56
2019-05-26T03:23:05.892Z,11.50
2019-05-26T03:24:05.634Z,11.50
2019-05-26T03:25:05.809Z,11.56
2019-05-26T03:26:05.973Z,11.50
2019-05-26T03:27:06.115Z,11.50
2019-05-26T03:28:06.442Z,11.56
2019-05-26T03:29:05.709Z,11.56
2019-05-26T03:30:05.889Z,11.56
2019-05-26T03:31:05.569Z,11.50
2019-05-26T03:32:05.886Z,11.62
2019-05-26T03:33:05.660Z,11.62
2019-05-26T03:34:05.312Z,11.62
2019-05-26T03:35:06.552Z,11.56
2019-05-26T03:36:09.705Z,11.62
2019-05-26T03:37:05.395Z,11.62
2019-05-26T03:38:06.046Z,11.62
2019-05-26T03:39:05.561Z,11.50
2019-05-26T03:40:05.090Z,11.62
2019-05-26T03:41:06.110Z,11.62
2019-05-26T03:42:05.729Z,11.62
2019-05-26T03:43:05.253Z,11.62
2019-05-26T03:44:05.717Z,11.62
2019-05-26T03:45:05.085Z,11.56
2019-05-26T03:46:05.995Z,11.62
2019-05-26T03:47:05.988Z,11.50
2019-05-26T03:48:06.125Z,11.44
2019-05-26T03:49:05.242Z,11.38
2019-05-26T03:50:05.500Z,11.38
2019-05-26T03:51:05.475Z,11.38
2019-05-26T03:52:05.268Z,11.44
2019-05-26T03:53:05.658Z,11.44
2019-05-26T03:54:05.712Z,11.56
2019-05-26T03:55:05.573Z,11.62
2019-05-26T03:56:05.636Z,11.81
2019-05-26T03:57:05.164Z,12.00
2019-05-26T03:58:05.242Z,12.12
2019-05-26T03:59:05.546Z,12.19
2019-05-26T04:00:05.075Z,12.25
2019-05-26T04:01:05.242Z,12.25
2019-05-26T04:02:05.912Z,12.38
2019-05-26T04:03:05.974Z,12.50
2019-05-26T04:04:05.235Z,12.75
2019-05-26T04:05:05.394Z,12.81
2019-05-26T04:06:05.580Z,12.94
2019-05-26T04:07:05.714Z,13.00
2019-05-26T04:08:05.624Z,13.06
2019-05-26T04:09:06.207Z,13.25
2019-05-26T04:10:06.173Z,13.44
2019-05-26T04:11:05.000Z,13.56
2019-05-26T04:12:05.589Z,13.62
2019-05-26T04:13:05.744Z,13.75
2019-05-26T04:14:05.813Z,13.81
2019-05-26T04:15:05.949Z,13.94
2019-05-26T04:16:05.432Z,14.00
2019-05-26T04:17:05.566Z,14.06
2019-05-26T04:18:05.923Z,14.12
2019-05-26T04:19:05.078Z,14.19
2019-05-26T04:20:05.242Z,14.31
2019-05-26T04:21:06.295Z,14.50
2019-05-26T04:22:05.488Z,14.88
2019-05-26T04:23:05.664Z,15.06
2019-05-26T04:24:05.635Z,15.25
2019-05-26T04:25:06.302Z,15.44
2019-05-26T04:26:05.718Z,15.56
2019-05-26T04:27:06.771Z,15.56
2019-05-26T04:28:05.069Z,15.62
2019-05-26T04:29:05.311Z,15.69
2019-05-26T04:30:05.724Z,15.81
2019-05-26T04:31:05.153Z,15.88
2019-05-26T04:32:05.671Z,15.94
2019-05-26T04:33:05.744Z,15.94
2019-05-26T04:34:05.166Z,16.06
2019-05-26T04:35:05.926Z,16.12
2019-05-26T04:36:05.230Z,16.25
2019-05-26T04:37:05.809Z,16.38
2019-05-26T04:38:05.177Z,16.50
2019-05-26T04:39:05.354Z,16.69
2019-05-26T04:40:24.696Z,16.81
2019-05-26T04:41:06.165Z,17.00
2019-05-26T04:42:05.395Z,17.12
2019-05-26T04:43:05.412Z,17.25
2019-05-26T04:44:05.544Z,17.44
2019-05-26T04:45:05.069Z,17.62
2019-05-26T04:46:05.327Z,18.00
2019-05-26T04:47:06.366Z,18.25
2019-05-26T04:48:05.792Z,18.44
2019-05-26T04:49:05.489Z,18.56
2019-05-26T04:50:05.883Z,18.69
2019-05-26T04:51:05.249Z,18.81
2019-05-26T04:52:05.967Z,18.94
2019-05-26T04:53:07.185Z,19.06
2019-05-26T04:54:06.042Z,19.19
2019-05-26T04:55:05.422Z,19.38
2019-05-26T04:56:05.652Z,19.44
2019-05-26T04:57:05.964Z,19.56
2019-05-26T04:58:05.408Z,19.69
2019-05-26T04:59:05.904Z,19.81
2019-05-26T05:00:05.966Z,19.94
2019-05-26T05:01:05.242Z,20.00
2019-05-26T05:02:05.549Z,20.06
2019-05-26T05:03:05.416Z,20.25
2019-05-26T05:04:05.400Z,20.38
2019-05-26T05:05:05.811Z,20.56
2019-05-26T05:06:05.425Z,20.75
2019-05-26T05:07:05.659Z,21.00
2019-05-26T05:08:05.622Z,21.12
2019-05-26T05:09:05.398Z,21.19
2019-05-26T05:10:06.119Z,21.31
2019-05-26T05:11:05.399Z,21.44
2019-05-26T05:12:05.554Z,21.56
2019-05-26T05:13:05.888Z,21.69
2019-05-26T05:14:05.489Z,21.88
2019-05-26T05:15:06.035Z,22.06
2019-05-26T05:16:05.326Z,22.19
2019-05-26T05:17:05.489Z,22.38
2019-05-26T05:18:05.742Z,22.56
2019-05-26T05:19:05.169Z,22.69
2019-05-26T05:20:05.326Z,22.88
2019-05-26T05:21:05.962Z,23.00
2019-05-26T05:22:05.408Z,23.06
2019-05-26T05:23:05.645Z,23.19
2019-05-26T05:24:05.430Z,23.44
2019-05-26T05:25:09.938Z,23.69
2019-05-26T05:26:05.955Z,23.94
2019-05-26T05:27:05.486Z,24.12
2019-05-26T05:28:05.739Z,24.38
2019-05-26T05:29:05.241Z,24.62
2019-05-26T05:30:05.802Z,24.94
2019-05-26T05:31:05.411Z,25.25
2019-05-26T05:32:05.232Z,25.56
2019-05-26T05:33:05.809Z,25.94
2019-05-26T05:34:05.473Z,26.25
2019-05-26T05:35:07.741Z,26.81
2019-05-26T05:36:05.406Z,27.25
2019-05-26T05:37:05.172Z,27.50
2019-05-26T05:38:05.335Z,27.06
2019-05-26T05:39:05.724Z,27.75
2019-05-26T05:40:05.414Z,28.25
2019-05-26T05:41:05.633Z,28.25
2019-05-26T05:42:05.319Z,28.12
2019-05-26T05:43:05.722Z,27.94
2019-05-26T05:44:05.913Z,27.88
2019-05-26T05:45:05.491Z,28.25
2019-05-26T05:46:05.554Z,28.38
2019-05-26T05:47:05.961Z,28.50
2019-05-26T05:48:05.957Z,28.56
2019-05-26T05:49:05.162Z,28.50
2019-05-26T05:50:05.477Z,28.62
2019-05-26T05:51:05.149Z,28.62
2019-05-26T05:52:05.332Z,28.50
2019-05-26T05:53:05.326Z,28.81
2019-05-26T05:54:06.127Z,29.06
2019-05-26T05:55:05.574Z,29.19
2019-05-26T05:56:05.613Z,29.25
2019-05-26T05:57:05.888Z,29.44
2019-05-26T05:58:05.159Z,29.62
2019-05-26T05:59:05.728Z,29.88
2019-05-26T06:00:05.335Z,30.00
2019-05-26T06:01:05.559Z,30.00
2019-05-26T06:02:05.554Z,30.00
2019-05-26T06:03:06.757Z,29.88
2019-05-26T06:04:05.329Z,29.88
2019-05-26T06:05:05.252Z,29.88
2019-05-26T06:06:05.552Z,29.88
2019-05-26T06:07:05.401Z,29.94
2019-05-26T06:08:05.804Z,29.88
2019-05-26T06:09:06.205Z,30.12
2019-05-26T06:10:05.658Z,30.25
2019-05-26T06:11:15.741Z,30.00
2019-05-26T06:12:05.710Z,30.00
2019-05-26T06:13:05.958Z,29.88
2019-05-26T06:14:05.332Z,29.81
2019-05-26T06:15:05.961Z,29.69
2019-05-26T06:16:05.324Z,29.69
2019-05-26T06:17:09.720Z,29.31
2019-05-26T06:18:05.164Z,29.12
2019-05-26T06:19:05.402Z,29.00
2019-05-26T06:20:05.897Z,28.88
2019-05-26T06:21:06.043Z,29.00
2019-05-26T06:22:06.373Z,29.19
2019-05-26T06:23:05.753Z,29.31
2019-05-26T06:24:05.977Z,29.31
2019-05-26T06:25:05.336Z,29.12
2019-05-26T06:26:05.649Z,29.00
2019-05-26T06:27:06.024Z,28.94
2019-05-26T06:28:05.720Z,28.81
2019-05-26T06:29:05.790Z,28.81
2019-05-26T06:30:05.474Z,28.75
2019-05-26T06:31:05.958Z,28.81
2019-05-26T06:32:05.381Z,28.81
2019-05-26T06:33:05.984Z,28.81
2019-05-26T06:34:06.042Z,28.81
2019-05-26T06:35:05.570Z,28.81
2019-05-26T06:36:05.723Z,28.88
2019-05-26T06:37:05.317Z,29.00
2019-05-26T06:38:06.036Z,29.25
2019-05-26T06:39:05.560Z,29.25
2019-05-26T06:40:05.642Z,29.12
2019-05-26T06:41:05.163Z,29.06
2019-05-26T06:42:05.238Z,29.06
2019-05-26T06:43:05.083Z,29.12
2019-05-26T06:44:05.240Z,29.12
2019-05-26T06:45:05.721Z,29.12
2019-05-26T06:46:05.334Z,29.25
2019-05-26T06:47:05.431Z,29.31
2019-05-26T06:48:05.492Z,29.38
2019-05-26T06:49:05.638Z,29.44
2019-05-26T06:50:05.320Z,29.38
2019-05-26T06:51:05.756Z,29.38
2019-05-26T06:52:05.157Z,29.38
2019-05-26T06:53:05.385Z,29.31
2019-05-26T06:54:06.057Z,29.25
2019-05-26T06:55:05.580Z,29.31
2019-05-26T06:56:05.806Z,29.38
2019-05-26T06:57:05.973Z,29.44
2019-05-26T06:58:05.080Z,29.44
2019-05-26T06:59:06.041Z,29.38
2019-05-26T07:00:05.723Z,29.44
2019-05-26T07:01:06.126Z,29.50
2019-05-26T07:02:05.923Z,29.56
2019-05-26T07:03:05.883Z,29.56
2019-05-26T07:04:05.272Z,29.69
2019-05-26T07:05:05.328Z,29.75
2019-05-26T07:06:05.650Z,29.81
2019-05-26T07:07:06.279Z,29.88
2019-05-26T07:08:05.074Z,29.81
2019-05-26T07:09:05.803Z,29.81
2019-05-26T07:10:05.561Z,29.88
2019-05-26T07:11:05.826Z,29.94
2019-05-26T07:12:06.027Z,30.00
2019-05-26T07:13:05.480Z,30.00
2019-05-26T07:14:05.554Z,29.94
2019-05-26T07:15:05.809Z,30.00
2019-05-26T07:16:05.557Z,30.00
2019-05-26T07:17:05.904Z,30.06
2019-05-26T07:18:05.413Z,30.06
2019-05-26T07:19:05.174Z,30.00
2019-05-26T07:20:05.965Z,30.00
2019-05-26T07:21:05.398Z,30.12
2019-05-26T07:22:05.793Z,30.19
2019-05-26T07:23:06.661Z,30.19
2019-05-26T07:24:05.488Z,30.19
2019-05-26T07:25:05.798Z,30.19
2019-05-26T07:26:05.369Z,30.19
2019-05-26T07:27:05.336Z,30.25
2019-05-26T07:28:05.705Z,30.19
2019-05-26T07:29:05.981Z,30.19
2019-05-26T07:30:05.584Z,30.12
2019-05-26T07:31:06.060Z,30.19
2019-05-26T07:32:05.164Z,30.19
2019-05-26T07:33:05.811Z,30.31
2019-05-26T07:34:05.589Z,30.31
2019-05-26T07:35:05.566Z,30.31
2019-05-26T07:36:06.039Z,30.31
2019-05-26T07:37:05.236Z,30.31
2019-05-26T07:38:05.983Z,30.44
2019-05-26T07:39:05.092Z,30.44
2019-05-26T07:40:05.298Z,30.44
2019-05-26T07:41:06.068Z,30.38
2019-05-26T07:42:10.309Z,30.25
2019-05-26T07:43:05.718Z,30.31
2019-05-26T07:44:05.095Z,30.31
2019-05-26T07:45:05.576Z,30.38
2019-05-26T07:46:05.741Z,30.38
2019-05-26T07:47:05.442Z,30.31
2019-05-26T07:48:05.788Z,30.25
2019-05-26T07:49:05.840Z,30.25
2019-05-26T07:50:05.170Z,30.25
2019-05-26T07:51:05.580Z,30.31
2019-05-26T07:52:06.069Z,30.38
2019-05-26T07:53:06.138Z,30.31
2019-05-26T07:54:05.415Z,30.38
2019-05-26T07:55:05.652Z,30.31
2019-05-26T07:56:05.815Z,30.38
2019-05-26T07:57:06.026Z,30.44
2019-05-26T07:58:05.168Z,30.44
2019-05-26T07:59:06.721Z,30.56
2019-05-26T08:00:05.235Z,30.62
2019-05-26T08:01:05.786Z,30.69
2019-05-26T08:02:05.824Z,30.62
2019-05-26T08:03:05.478Z,30.69
2019-05-26T08:04:06.073Z,30.69
2019-05-26T08:05:05.812Z,30.69
2019-05-26T08:06:05.161Z,30.75
2019-05-26T08:07:05.959Z,30.75
2019-05-26T08:08:12.455Z,30.75
2019-05-26T08:09:05.211Z,30.75
2019-05-26T08:10:05.366Z,30.75
2019-05-26T08:11:05.162Z,30.69
2019-05-26T08:12:05.329Z,30.69
2019-05-26T08:13:05.335Z,30.62
2019-05-26T08:14:05.347Z,30.69
2019-05-26T08:15:05.636Z,30.56
2019-05-26T08:16:05.903Z,30.56
2019-05-26T08:17:06.067Z,30.56
2019-05-26T08:18:05.176Z,30.56
2019-05-26T08:19:06.286Z,30.56
2019-05-26T08:20:06.195Z,30.44
2019-05-26T08:21:05.166Z,30.31
2019-05-26T08:22:05.845Z,30.12
2019-05-26T08:23:05.788Z,30.06
2019-05-26T08:24:05.502Z,30.00
2019-05-26T08:25:05.251Z,30.00
2019-05-26T08:26:05.089Z,30.00
2019-05-26T08:27:05.401Z,29.94
2019-05-26T08:28:05.588Z,29.88
2019-05-26T08:29:05.833Z,29.88
2019-05-26T08:30:06.127Z,29.69
2019-05-26T08:31:05.561Z,29.56
2019-05-26T08:32:06.026Z,29.50
2019-05-26T08:33:05.612Z,29.50
2019-05-26T08:34:05.959Z,29.50
2019-05-26T08:35:05.172Z,29.44
2019-05-26T08:36:06.177Z,29.44
2019-05-26T08:37:05.656Z,29.50
2019-05-26T08:38:05.994Z,29.50
2019-05-26T08:39:05.162Z,29.38
2019-05-26T08:40:05.882Z,29.19
2019-05-26T08:41:05.235Z,29.19
2019-05-26T08:42:05.968Z,29.12
2019-05-26T08:43:05.165Z,29.06
2019-05-26T08:44:05.654Z,29.19
2019-05-26T08:45:05.406Z,29.25
2019-05-26T08:46:06.018Z,29.12
2019-05-26T08:47:05.394Z,29.06
2019-05-26T08:48:05.291Z,29.12
2019-05-26T08:49:05.898Z,29.19
2019-05-26T08:50:06.010Z,29.12
2019-05-26T08:51:05.649Z,29.12
2019-05-26T08:52:05.892Z,29.06
2019-05-26T08:53:05.757Z,28.94
2019-05-26T08:54:05.590Z,28.81
2019-05-26T08:55:06.148Z,28.81
2019-05-26T08:56:05.255Z,28.81
2019-05-26T08:57:05.901Z,28.62
2019-05-26T08:58:05.172Z,28.44
2019-05-26T08:59:05.450Z,28.44
2019-05-26T09:00:05.740Z,28.50
2019-05-26T09:01:05.823Z,28.56
2019-05-26T09:02:05.690Z,28.56
2019-05-26T09:03:05.992Z,28.38
2019-05-26T09:04:05.094Z,28.25
2019-05-26T09:05:05.670Z,28.06
2019-05-26T09:06:05.358Z,28.06
2019-05-26T09:07:05.488Z,27.94
2019-05-26T09:08:08.030Z,27.88
2019-05-26T09:09:05.920Z,27.88
2019-05-26T09:10:05.369Z,27.75
2019-05-26T09:11:05.931Z,27.69
2019-05-26T09:12:05.940Z,27.62
2019-05-26T09:13:05.471Z,27.62
2019-05-26T09:14:05.243Z,27.62
2019-05-26T09:15:06.110Z,27.75
2019-05-26T09:16:05.318Z,27.81
2019-05-26T09:17:06.056Z,27.81
2019-05-26T09:18:05.689Z,27.69
2019-05-26T09:19:06.108Z,27.56
2019-05-26T09:20:05.640Z,27.50
2019-05-26T09:21:05.906Z,27.50
2019-05-26T09:22:05.587Z,27.44
2019-05-26T09:23:05.229Z,27.38
2019-05-26T09:24:05.944Z,27.25
2019-05-26T09:25:05.765Z,27.25
2019-05-26T09:26:05.978Z,27.25
2019-05-26T09:27:05.307Z,27.31
2019-05-26T09:28:06.094Z,27.31
2019-05-26T09:29:05.317Z,27.31
2019-05-26T09:30:05.343Z,27.31
2019-05-26T09:31:05.909Z,27.25
2019-05-26T09:32:05.411Z,27.19
2019-05-26T09:33:06.162Z,27.19
2019-05-26T09:34:05.872Z,27.19
2019-05-26T09:35:05.595Z,27.25
2019-05-26T09:36:06.082Z,27.19
2019-05-26T09:37:05.822Z,27.00
2019-05-26T09:38:05.662Z,26.94
2019-05-26T09:39:06.154Z,26.88
2019-05-26T09:40:06.995Z,26.81
2019-05-26T09:41:05.717Z,26.81
2019-05-26T09:42:05.306Z,26.75
2019-05-26T09:43:15.434Z,26.81
2019-05-26T09:44:05.218Z,26.75
2019-05-26T09:45:05.557Z,26.69
2019-05-26T09:46:05.184Z,26.69
2019-05-26T09:47:05.174Z,26.75
2019-05-26T09:48:05.940Z,26.75
2019-05-26T09:49:05.562Z,26.75
2019-05-26T09:50:05.687Z,26.69
2019-05-26T09:51:06.138Z,26.62
2019-05-26T09:52:05.596Z,26.69
2019-05-26T09:53:05.935Z,26.62
2019-05-26T09:54:05.990Z,26.62
2019-05-26T09:55:05.498Z,26.62
2019-05-26T09:56:06.030Z,26.56
2019-05-26T09:57:05.174Z,26.56
2019-05-26T09:58:05.327Z,26.50
2019-05-26T09:59:05.822Z,26.50
2019-05-26T10:00:05.883Z,26.56
2019-05-26T10:01:05.424Z,26.69
2019-05-26T10:02:05.885Z,26.75
2019-05-26T10:03:05.251Z,26.75
2019-05-26T10:04:05.561Z,26.69
2019-05-26T10:05:05.890Z,26.62
2019-05-26T10:06:05.579Z,26.62
2019-05-26T10:07:05.282Z,26.69
2019-05-26T10:08:05.903Z,26.62
2019-05-26T10:09:05.423Z,26.56
2019-05-26T10:10:05.741Z,26.56
2019-05-26T10:11:05.403Z,26.50
2019-05-26T10:12:05.975Z,26.50
2019-05-26T10:13:05.335Z,26.50
2019-05-26T10:14:05.909Z,26.50
2019-05-26T10:15:05.226Z,26.56
2019-05-26T10:16:05.581Z,26.62
2019-05-26T10:17:05.250Z,26.69
2019-05-26T10:18:05.807Z,26.62
2019-05-26T10:19:06.005Z,26.62
2019-05-26T10:20:05.159Z,26.50
2019-05-26T10:21:05.536Z,26.50
2019-05-26T10:22:06.227Z,26.56
2019-05-26T10:23:05.800Z,26.56
2019-05-26T10:24:05.493Z,26.62
2019-05-26T10:25:05.484Z,26.62
2019-05-26T10:26:05.936Z,26.56
2019-05-26T10:27:05.519Z,26.69
2019-05-26T10:28:06.037Z,26.56
2019-05-26T10:29:05.687Z,26.50
2019-05-26T10:30:06.211Z,26.44
2019-05-26T10:31:05.655Z,26.50
2019-05-26T10:32:06.095Z,26.50
2019-05-26T10:33:06.282Z,26.56
2019-05-26T10:34:05.717Z,26.50
2019-05-26T10:35:05.911Z,26.56
2019-05-26T10:36:05.482Z,26.56
2019-05-26T10:37:05.650Z,26.62
2019-05-26T10:38:05.750Z,26.56
2019-05-26T10:39:05.248Z,26.50
2019-05-26T10:40:06.097Z,26.56
2019-05-26T10:41:06.329Z,26.75
2019-05-26T10:42:05.772Z,26.75
2019-05-26T10:43:05.320Z,26.75
2019-05-26T10:44:06.113Z,26.69
2019-05-26T10:45:05.801Z,26.62
2019-05-26T10:46:05.853Z,26.62
2019-05-26T10:47:05.267Z,26.56
2019-05-26T10:48:06.036Z,26.56
2019-05-26T10:49:05.328Z,26.62
2019-05-26T10:50:06.914Z,26.62
2019-05-26T10:51:06.925Z,26.69
2019-05-26T10:52:06.185Z,26.69
2019-05-26T10:53:05.794Z,26.69
2019-05-26T10:54:06.042Z,26.75
2019-05-26T10:55:05.557Z,26.75
2019-05-26T10:56:05.473Z,26.75
2019-05-26T10:57:06.089Z,26.62
2019-05-26T10:58:05.774Z,26.69
2019-05-26T10:59:05.212Z,26.75
2019-05-26T11:00:05.505Z,26.81
2019-05-26T11:01:06.271Z,26.81
2019-05-26T11:02:05.264Z,26.81
2019-05-26T11:03:05.878Z,26.81
2019-05-26T11:04:05.672Z,26.88
2019-05-26T11:05:06.134Z,27.06
2019-05-26T11:06:06.110Z,27.19
2019-05-26T11:07:05.555Z,27.12
2019-05-26T11:08:05.554Z,27.12
2019-05-26T11:09:05.551Z,27.31
2019-05-26T11:10:07.185Z,27.38
2019-05-26T11:11:06.204Z,27.50
2019-05-26T11:12:05.367Z,27.50
2019-05-26T11:13:06.350Z,27.44
2019-05-26T11:14:05.419Z,27.62
2019-05-26T11:15:05.664Z,27.50
2019-05-26T11:16:05.756Z,27.50
2019-05-26T11:17:06.217Z,27.50
2019-05-26T11:18:06.199Z,27.56
2019-05-26T11:19:06.211Z,27.62
2019-05-26T11:20:05.864Z,27.88
2019-05-26T11:21:05.919Z,27.81
2019-05-26T11:22:05.471Z,27.81
2019-05-26T11:23:05.460Z,27.81
2019-05-26T11:24:06.337Z,27.69
2019-05-26T11:25:06.083Z,27.56
2019-05-26T11:26:05.486Z,27.50
2019-05-26T11:27:08.853Z,27.44
2019-05-26T11:28:05.581Z,27.38
2019-05-26T11:29:06.350Z,27.31
2019-05-26T11:30:05.979Z,27.25
2019-05-26T11:31:05.462Z,27.12
2019-05-26T11:32:06.220Z,27.06
2019-05-26T11:33:06.166Z,27.19
2019-05-26T11:34:05.964Z,27.38
2019-05-26T11:35:05.841Z,27.44
2019-05-26T11:36:06.440Z,27.44
2019-05-26T11:37:05.644Z,27.44
2019-05-26T11:38:05.483Z,27.44
2019-05-26T11:39:06.083Z,27.38
2019-05-26T11:40:05.927Z,27.38
2019-05-26T11:41:05.809Z,27.38
2019-05-26T11:42:13.097Z,27.38
2019-05-26T11:43:16.035Z,27.44
2019-05-26T11:44:17.276Z,27.50
2019-05-26T11:45:06.301Z,27.56
2019-05-26T11:46:05.499Z,27.62
2019-05-26T11:47:06.335Z,27.88
2019-05-26T11:48:06.010Z,28.00
2019-05-26T11:49:06.043Z,27.88
2019-05-26T11:50:05.905Z,27.81
2019-05-26T11:51:06.229Z,27.81
2019-05-26T11:52:06.406Z,27.75
2019-05-26T11:53:06.507Z,27.81
2019-05-26T11:54:06.023Z,27.69
2019-05-26T11:55:06.288Z,27.62
2019-05-26T11:56:05.666Z,27.62
2019-05-26T11:57:06.357Z,27.56
2019-05-26T11:58:06.102Z,27.56
2019-05-26T11:59:05.572Z,27.56
2019-05-26T12:00:06.213Z,27.50
2019-05-26T12:01:05.597Z,27.62
2019-05-26T12:02:05.410Z,27.69
2019-05-26T12:03:06.305Z,27.75
2019-05-26T12:04:05.827Z,27.69
2019-05-26T12:05:05.870Z,27.62
2019-05-26T12:06:05.553Z,27.62
2019-05-26T12:07:05.404Z,27.81
2019-05-26T12:08:05.387Z,27.81
2019-05-26T12:09:06.459Z,28.00
2019-05-26T12:10:06.041Z,27.94
2019-05-26T12:11:05.748Z,27.88
2019-05-26T12:12:05.626Z,27.75
2019-05-26T12:13:05.438Z,27.69
2019-05-26T12:14:06.195Z,27.56
2019-05-26T12:15:06.183Z,27.75
2019-05-26T12:16:06.071Z,27.75
2019-05-26T12:17:05.408Z,27.75
2019-05-26T12:18:06.008Z,27.69
2019-05-26T12:19:06.161Z,27.62
2019-05-26T12:20:05.803Z,27.56
2019-05-26T12:21:05.644Z,27.56
2019-05-26T12:22:06.021Z,27.62
2019-05-26T12:23:05.597Z,27.62
2019-05-26T12:24:06.090Z,27.69
2019-05-26T12:25:06.209Z,27.62
2019-05-26T12:26:05.451Z,27.56
2019-05-26T12:27:06.119Z,27.44
2019-05-26T12:28:06.210Z,27.38
2019-05-26T12:29:05.446Z,27.38
2019-05-26T12:30:05.679Z,27.31
2019-05-26T12:31:06.200Z,27.25
2019-05-26T12:32:05.867Z,27.19
2019-05-26T12:33:05.321Z,27.25
2019-05-26T12:34:05.531Z,27.38
2019-05-26T12:35:05.751Z,27.38
2019-05-26T12:36:05.938Z,27.75
2019-05-26T12:37:06.087Z,27.75
2019-05-26T12:38:05.978Z,27.69
2019-05-26T12:39:05.608Z,27.56
2019-05-26T12:40:05.708Z,27.44
2019-05-26T12:41:06.346Z,27.38
2019-05-26T12:42:05.868Z,27.38
2019-05-26T12:43:05.337Z,27.38
2019-05-26T12:44:06.131Z,27.31
2019-05-26T12:45:05.524Z,27.31
2019-05-26T12:46:05.260Z,27.31
2019-05-26T12:47:05.662Z,27.38
2019-05-26T12:48:05.783Z,27.38
2019-05-26T12:49:05.640Z,27.38
2019-05-26T12:50:05.180Z,27.25
2019-05-26T12:51:06.065Z,27.31
2019-05-26T12:52:06.151Z,27.38